Big Rapids, MI

10:58 PM EDT on October 15, 2019 (GMT -0400)
Roben-Hood

Weather History for KRQB - August, 2019

Change the Weather History Date:

Sunday, August 11, 2019

  Actual Average Record
Temperature  
Mean Temperature 65 °F -  
Max Temperature 79 °F 77 °F 92 °F (1988)
Min Temperature 51 °F 53 °F 41 °F (1982)
Growing Degree Days 15 (Base 50)    
Moisture  
Dew Point 57 °F    
Average Humidity 75    
Maximum Humidity 97    
Minimum Humidity 47    
Precipitation  
Precipitation 0.00 in - - ()
Sea Level Pressure  
Sea Level Pressure 30.02 in    
Wind  
Wind Speed 1 mph (SSW)    
Max Wind Speed 9 mph    
Max Gust Speed -    
Visibility 10 miles    
Events Rain    
Averages and records for this station are not official NWS values.
T = Trace of Precipitation, MM = Missing Value Source: NWS Daily Summary

Daily Weather History Graph

Daily Weather History Graph

Search for Another Location

Airport or City:

Astronomy

Aug. 11, 2019 Rise Set
Actual Time 6:41 AM EDT 8:51 PM EDT
Civil Twilight 6:10 AM EDT 9:23 PM EDT
Nautical Twilight 5:31 AM EDT 10:02 PM EDT
Astronomical Twilight 4:47 AM EDT 10:45 PM EDT
Moon 6:35 PM EDT (8/11) 2:57 AM EDT (8/11)
Length of Visible Light 15h 13m
Length of Day
14h 10m
Waxing Gibbous, 87% of the Moon is Illuminated
Aug 11
Waxing Gibbous
Aug 15
Full
Aug 23
Last Quarter
Aug 30
New
Sep 5
First Quarter

Hourly Weather History & Observations

Time (EDT) Temp. Dew Point Humidity Pressure Visibility Wind Dir Wind Speed Gust Speed Precip Events Conditions
12:15 AM 56.3 °F 54.1 °F 92% 30.03 in 10.0 mi Calm Calm - N/A   Clear
12:16 AM 56.3 °F 54.3 °F 93% 30.03 in 10.0 mi Calm Calm - N/A   Clear
12:39 AM 56.5 °F 54.5 °F 93% 30.02 in 10.0 mi Calm Calm - N/A   Clear
12:57 AM 55.6 °F 53.8 °F 94% 30.03 in 10.0 mi Calm Calm - N/A   Clear
1:15 AM 56.1 °F 54.3 °F 94% 30.04 in 10.0 mi Calm Calm - N/A   Clear
1:35 AM 54.9 °F 53.4 °F 95% 30.04 in 10.0 mi Calm Calm - N/A   Clear
1:36 AM 55.0 °F 53.4 °F 94% 30.04 in 10.0 mi Calm Calm - N/A   Clear
1:55 AM 54.3 °F 52.7 °F 94% 30.04 in 10.0 mi Calm Calm - N/A   Clear
2:18 AM 54.1 °F 52.5 °F 94% 30.04 in 10.0 mi Calm Calm - N/A   Clear
2:36 AM 54.0 °F 52.7 °F 95% 30.04 in 10.0 mi Calm Calm - N/A   Clear
2:55 AM 53.1 °F 52.0 °F 96% 30.04 in 10.0 mi Calm Calm - N/A   Clear
3:15 AM 53.2 °F 52.0 °F 95% 30.04 in 10.0 mi Calm Calm - N/A   Clear
3:38 AM 53.1 °F 51.8 °F 95% 30.04 in 10.0 mi Calm Calm - N/A   Clear
3:56 AM 52.7 °F 51.4 °F 95% 30.03 in 10.0 mi Calm Calm - N/A   Clear
4:15 AM 52.0 °F 50.7 °F 95% 30.05 in 10.0 mi Calm Calm - N/A   Clear
4:35 AM 51.3 °F 49.8 °F 95% 30.05 in 10.0 mi Calm Calm - N/A   Clear
4:59 AM 52.5 °F 51.4 °F 96% 30.05 in 10.0 mi Calm Calm - N/A   Clear
5:16 AM 51.8 °F 50.7 °F 96% 30.05 in 10.0 mi Calm Calm - N/A   Clear
5:35 AM 51.8 °F 50.9 °F 97% 30.04 in 10.0 mi Calm Calm - N/A   Clear
5:36 AM 51.8 °F 50.9 °F 97% 30.04 in 10.0 mi Calm Calm - N/A   Clear
5:55 AM 51.8 °F 50.7 °F 96% 30.04 in 10.0 mi Calm Calm - N/A   Clear
5:56 AM 51.8 °F 50.7 °F 96% 30.04 in 10.0 mi Calm Calm - N/A   Clear
6:19 AM 52.5 °F 51.6 °F 97% 30.06 in 10.0 mi Calm Calm - N/A   Clear
6:37 AM 52.7 °F 51.3 °F 95% 30.06 in 10.0 mi Calm Calm - N/A   Scattered Clouds
6:55 AM 52.7 °F 51.8 °F 97% 30.06 in 10.0 mi Calm Calm - N/A   Mostly Cloudy
6:56 AM 52.9 °F 51.8 °F 96% 30.06 in 10.0 mi Calm Calm - N/A   Mostly Cloudy
7:15 AM 53.6 °F 52.3 °F 95% 30.06 in 10.0 mi Calm Calm - N/A   Overcast
7:16 AM 53.8 °F 52.5 °F 95% 30.06 in 10.0 mi Calm Calm - N/A   Overcast
7:35 AM 54.7 °F 53.2 °F 95% 30.06 in 10.0 mi East 5.8 mph - N/A   Overcast
7:58 AM 56.3 °F 54.3 °F 93% 30.06 in 10.0 mi Calm Calm - N/A   Overcast
8:16 AM 56.5 °F 54.7 °F 94% 30.06 in 10.0 mi Calm Calm - N/A   Overcast
8:35 AM 58.5 °F 55.8 °F 91% 30.07 in 10.0 mi Calm Calm - N/A   Overcast
8:55 AM 59.2 °F 56.1 °F 90% 30.07 in 10.0 mi Calm Calm - N/A   Mostly Cloudy
9:19 AM 60.8 °F 57.2 °F 88% 30.07 in 10.0 mi Calm Calm - N/A   Overcast
9:37 AM 61.9 °F 57.7 °F 86% 30.06 in 10.0 mi Calm Calm - N/A   Overcast
9:55 AM 63.1 °F 57.7 °F 83% 30.06 in 10.0 mi Calm Calm - N/A   Overcast
9:56 AM 63.1 °F 57.7 °F 83% 30.06 in 10.0 mi Calm Calm - N/A   Overcast
10:15 AM 64.4 °F 59.2 °F 83% 30.06 in 10.0 mi Calm Calm - N/A   Overcast
10:35 AM 66.2 °F 59.9 °F 80% 30.05 in 10.0 mi South 5.8 mph - N/A   Overcast
10:40 AM 66.4 °F 59.7 °F 79% 30.06 in 10.0 mi South 3.5 mph - N/A   Overcast
10:58 AM 67.8 °F 60.1 °F 76% 30.06 in 10.0 mi South 4.6 mph - N/A   Overcast
11:16 AM 69.8 °F 59.4 °F 69% 30.06 in 10.0 mi South 4.6 mph - N/A   Overcast
11:35 AM 70.3 °F 58.1 °F 65% 30.06 in 10.0 mi South 3.5 mph - N/A Rain Light Rain
11:55 AM 71.2 °F 57.7 °F 62% 30.06 in 10.0 mi South 4.6 mph - N/A   Overcast
11:56 AM 71.2 °F 57.4 °F 61% 30.06 in 10.0 mi SSW 3.5 mph - N/A   Overcast
12:19 PM 72.5 °F 56.8 °F 58% 30.06 in 10.0 mi SW 3.5 mph - N/A   Overcast
12:36 PM 72.9 °F 57.2 °F 58% 30.06 in 10.0 mi SSE 5.8 mph - N/A   Overcast
12:55 PM 72.9 °F 57.4 °F 58% 30.06 in 10.0 mi Calm Calm - N/A   Overcast
12:56 PM 72.9 °F 57.2 °F 58% 30.06 in 10.0 mi ESE 3.5 mph - N/A   Overcast
1:15 PM 75.0 °F 56.8 °F 53% 30.05 in 10.0 mi ESE 3.5 mph - N/A   Overcast
1:39 PM 74.8 °F 53.8 °F 48% 30.04 in 10.0 mi SSE 5.8 mph - N/A   Overcast
1:57 PM 76.5 °F 55.9 °F 49% 30.04 in 10.0 mi SSW 5.8 mph - N/A   Overcast
2:15 PM 75.9 °F 55.9 °F 50% 30.04 in 10.0 mi ENE 3.5 mph - N/A   Overcast
2:16 PM 75.9 °F 55.8 °F 49% 30.04 in 10.0 mi East 3.5 mph - N/A   Overcast
2:35 PM 77.5 °F 56.8 °F 49% 30.03 in 10.0 mi West 3.5 mph - N/A   Overcast
2:55 PM 76.6 °F 57.0 °F 51% 30.03 in 10.0 mi Calm Calm - N/A   Overcast
3:00 PM 77.5 °F 57.9 °F 51% 30.03 in 10.0 mi Calm Calm - N/A   Overcast
3:18 PM 77.7 °F 57.7 °F 50% 30.03 in 10.0 mi Calm Calm - N/A   Overcast
3:35 PM 79.0 °F 57.2 °F 47% 30.02 in 10.0 mi WNW 8.1 mph - N/A   Mostly Cloudy
3:56 PM 78.3 °F 58.1 °F 50% 30.01 in 10.0 mi South 9.2 mph - N/A   Mostly Cloudy
4:15 PM 79.5 °F 59.2 °F 50% 30.00 in 10.0 mi Calm Calm - N/A   Scattered Clouds
4:16 PM 79.5 °F 59.0 °F 49% 30.00 in 10.0 mi Calm Calm - N/A   Scattered Clouds
4:39 PM 79.0 °F 59.2 °F 51% 30.00 in 10.0 mi WSW 3.5 mph - N/A   Mostly Cloudy
4:57 PM 78.8 °F 59.7 °F 52% 29.99 in 10.0 mi SW 5.8 mph - N/A   Overcast
5:15 PM 79.9 °F 60.6 °F 52% 29.98 in 10.0 mi SW 9.2 mph - N/A   Overcast
5:35 PM 79.0 °F 60.8 °F 54% 29.98 in 10.0 mi SSW 8.1 mph - N/A   Overcast
5:36 PM 79.2 °F 60.8 °F 53% 29.98 in 10.0 mi SSW 9.2 mph - N/A   Overcast
5:55 PM 78.8 °F 60.4 °F 53% 29.98 in 10.0 mi Calm Calm - N/A   Mostly Cloudy
6:18 PM 78.6 °F 61.2 °F 55% 29.97 in 10.0 mi Calm Calm - N/A   Overcast
6:36 PM 76.8 °F 62.8 °F 62% 29.97 in 10.0 mi SW 5.8 mph - N/A   Overcast
6:55 PM 76.6 °F 63.3 °F 63% 29.97 in 10.0 mi SW 8.1 mph - N/A   Overcast
6:56 PM 76.6 °F 63.1 °F 63% 29.97 in 10.0 mi SW 8.1 mph - N/A   Overcast
7:15 PM 77.4 °F 61.9 °F 59% 29.97 in 10.0 mi SW 8.1 mph - N/A   Overcast
7:16 PM 77.4 °F 61.9 °F 59% 29.97 in 10.0 mi WSW 8.1 mph - N/A   Overcast
7:39 PM 75.9 °F 60.4 °F 59% 29.97 in 10.0 mi WSW 4.6 mph - N/A   Overcast
7:57 PM 75.2 °F 60.8 °F 61% 29.97 in 10.0 mi SW 3.5 mph - N/A   Overcast
8:15 PM 74.7 °F 59.5 °F 59% 29.97 in 10.0 mi SW 4.6 mph - N/A   Overcast
8:35 PM 73.6 °F 60.6 °F 64% 29.97 in 10.0 mi Calm Calm - N/A   Overcast
8:36 PM 73.6 °F 60.6 °F 64% 29.97 in 10.0 mi WSW 3.5 mph - N/A   Overcast
8:59 PM 71.6 °F 63.5 °F 76% 29.97 in 10.0 mi SW 3.5 mph - N/A   Overcast
9:16 PM 70.9 °F 62.6 °F 75% 29.97 in 10.0 mi Calm Calm - N/A   Overcast
9:35 PM 70.3 °F 63.1 °F 78% 29.96 in 10.0 mi Calm Calm - N/A   Overcast
9:58 PM 70.9 °F 62.6 °F 75% 29.97 in 10.0 mi Calm Calm - N/A   Overcast
10:16 PM 69.6 °F 63.5 °F 81% 29.97 in 10.0 mi Calm Calm - N/A   Overcast
10:35 PM 69.1 °F 62.8 °F 80% 29.97 in 10.0 mi SSW 6.9 mph - N/A   Overcast
10:55 PM 70.0 °F 62.6 °F 77% 29.96 in 10.0 mi West 3.5 mph - N/A   Overcast
10:56 PM 69.8 °F 62.6 °F 78% 29.96 in 10.0 mi West 5.8 mph - N/A   Overcast
11:19 PM 69.8 °F 63.1 °F 79% 29.96 in 10.0 mi West 3.5 mph - N/A   Overcast
11:37 PM 69.8 °F 63.5 °F 80% 29.96 in 10.0 mi Calm Calm - N/A   Overcast
11:55 PM 69.4 °F 64.0 °F 83% 29.96 in 10.0 mi Calm Calm - N/A   Overcast